Track Шерюков Михаил

Time Latitude Longitude Accuracy (66% radius in meters) Altitude (meters) Speed (km/hour) Bearing (degrees) Battery (%) GPS flag
07:03:55 57.196554 60.108647 9.6480007171631 304 1.960000038147 309.29998779297 86 1 delete
07:03:05 57.196465 60.108606 9.6480007171631 303 1.789999961853 198.89999389648 86 1 delete
07:02:59 57.196549 60.108681 10.720000267029 301 1.3300000429153 204.10000610352 86 1 delete
07:02:51 57.196647 60.108717 10.720000267029 301 1.7300000190735 201.5 86 1 delete
07:02:46 57.196745 60.108728 9.6480007171631 301 2.7799999713898 165.80000305176 86 1 delete
07:02:42 57.196849 60.108698 10.720000267029 300 1.4700000286102 159.69999694824 86 1 delete
07:02:31 57.196952 60.108687 10.720000267029 301 0.93000000715256 169.69999694824 86 1 delete
07:02:26 57.197046 60.108744 10.720000267029 296 1.7000000476837 174.89999389648 86 1 delete
07:02:20 57.197136 60.108812 12.864000320435 294 1.2799999713898 207.89999389648 86 1 delete
07:02:13 57.197221 60.108907 12.864000320435 300 0.93000000715256 264.79998779297 86 1 delete
07:02:07 57.197287 60.109049 12.864000320435 305 0.97000002861023 302.10000610352 86 1 delete
07:02:00 57.197329 60.109224 18.224000930786 308 1.4500000476837 274.39999389648 86 1 delete
07:01:54 57.197317 60.109413 16.079999923706 308 1.3099999427795 258.5 86 1 delete
07:01:49 57.197301 60.109579 13.936000823975 309 1.9500000476837 219.69999694824 86 1 delete
07:01:34 57.197349 60.109734 11.791999816895 314 0 0 86 1 delete
07:01:04 57.197394 60.109879 11.791999816895 311 0.81000000238419 255 86 1 delete
07:01:01 57.197410 60.110060 13.936000823975 308 2.1300001144409 246.10000610352 86 1 delete
07:00:57 57.197447 60.110220 10.720000267029 311 2.3399999141693 223.80000305176 86 1 delete
07:00:43 57.197552 60.110300 9.6480007171631 312 0 0 86 1 delete
07:00:37 57.197652 60.110259 9.6480007171631 311 1.3400000333786 170.30000305176 86 1 delete
07:00:13 57.197747 60.110226 10.720000267029 307 0 0 86 1 delete
07:00:02 57.197824 60.110135 9.6480007171631 309 1.0299999713898 141 86 1 delete
06:59:45 57.197914 60.110042 9.6480007171631 304 0 0 86 1 delete
06:59:02 57.197998 60.109978 10.720000267029 313 1.0700000524521 309.60000610352 86 1 delete
06:58:53 57.197955 60.110126 15.00800037384 299 0.5 235.60000610352 86 1 delete
06:58:44 57.197986 60.110293 16.079999923706 293 0 0 86 1 delete
06:58:33 57.197919 60.110413 16.079999923706 301 1.5700000524521 208.30000305176 86 1 delete
06:58:29 57.198018 60.110429 15.00800037384 301 1.6100000143051 189.39999389648 86 1 delete
06:58:25 57.198125 60.110426 15.00800037384 306 1.7599999904633 213.80000305176 86 1 delete
06:58:18 57.198213 60.110534 15.00800037384 305 1.7599999904633 217.10000610352 86 1 delete
06:58:13 57.198267 60.110682 12.864000320435 307 1.9299999475479 213.69999694824 86 1 delete
06:58:04 57.198347 60.110814 12.864000320435 307 2.289999961853 211.80000305176 86 1 delete
06:58:00 57.198431 60.110890 11.791999816895 310 2.0199999809265 203.89999389648 86 1 delete
06:57:54 57.198525 60.110992 10.720000267029 310 1.6900000572205 184.5 86 1 delete
06:57:30 57.198613 60.111027 11.791999816895 311 0.27000001072884 132.19999694824 86 1 delete
06:57:17 57.198701 60.110962 10.720000267029 312 0.55000001192093 113.80000305176 86 1 delete
06:57:04 57.198765 60.110836 10.720000267029 317 0.64999997615814 114.90000152588 86 1 delete
06:56:58 57.198846 60.110751 10.720000267029 320 1.6599999666214 150.10000610352 86 1 delete
06:56:53 57.198931 60.110667 9.6480007171631 319 0.87999999523163 148.80000305176 86 1 delete
06:56:42 57.199015 60.110544 9.6480007171631 324 1.4400000572205 141.30000305176 86 1 delete
06:56:01 57.199106 60.110482 10.720000267029 320 1.3300000429153 179.5 86 1 delete
06:55:39 57.199197 60.110484 9.6480007171631 319 0 0 86 1 delete
06:55:26 57.199288 60.110491 9.6480007171631 311 0 0 86 1 delete
06:54:53 57.199348 60.110353 11.791999816895 306 0.40000000596046 62.5 86 1 delete
06:54:44 57.199321 60.110176 10.720000267029 304 0.58999997377396 108.80000305176 86 1 delete
06:54:30 57.199302 60.110009 9.6480007171631 308 0 0 86 1 delete
06:53:38 57.199296 60.109839 9.6480007171631 312 0 0 86 1 delete
06:53:25 57.199308 60.109670 9.6480007171631 313 1.039999961853 106.09999847412 86 1 delete
06:53:11 57.199318 60.109486 9.6480007171631 312 0 0 86 1 delete
06:53:05 57.199359 60.109328 10.720000267029 307 0 0 86 1 delete